createdAt,value
2022-11-17T00:00:15.161Z,22.65
2022-11-17T00:02:41.748Z,19.98
2022-11-17T00:05:08.917Z,23.08
2022-11-17T00:07:37.705Z,23.88
2022-11-17T00:10:04.901Z,25.73
2022-11-17T00:12:49.841Z,19.08
2022-11-17T00:15:19.303Z,24.70
2022-11-17T00:18:08.611Z,21.25
2022-11-17T00:20:56.974Z,22.20
2022-11-17T00:23:25.296Z,22.17
2022-11-17T00:25:51.962Z,23.27
2022-11-17T00:28:18.478Z,25.23
2022-11-17T00:31:06.516Z,22.98
2022-11-17T00:33:51.728Z,24.15
2022-11-17T00:36:25.707Z,21.27
2022-11-17T00:38:52.135Z,28.30
2022-11-17T00:41:18.555Z,25.30
2022-11-17T00:43:45.123Z,25.27
2022-11-17T00:46:12.855Z,24.75
2022-11-17T00:48:39.391Z,21.58
2022-11-17T00:51:06.066Z,25.67
2022-11-17T00:53:33.210Z,25.50
2022-11-17T00:56:00.109Z,27.90
2022-11-17T00:58:29.693Z,30.65
2022-11-17T01:00:56.380Z,28.73
2022-11-17T01:03:22.939Z,27.35
2022-11-17T01:05:49.459Z,27.15
2022-11-17T01:08:18.302Z,27.13
2022-11-17T01:10:44.742Z,30.77
2022-11-17T01:13:11.287Z,30.60
2022-11-17T01:15:37.812Z,28.17
2022-11-17T01:18:04.352Z,25.65
2022-11-17T01:20:31.000Z,24.27
2022-11-17T01:22:57.511Z,25.95
2022-11-17T01:25:24.004Z,25.17
2022-11-17T01:27:50.509Z,25.20
2022-11-17T01:30:18.218Z,24.88
2022-11-17T01:32:44.690Z,24.05
2022-11-17T01:35:11.204Z,25.30
2022-11-17T01:37:37.689Z,24.20
2022-11-17T01:40:04.654Z,30.63
2022-11-17T01:42:33.814Z,26.40
2022-11-17T01:45:20.825Z,17.17
2022-11-17T01:47:58.701Z,24.63
2022-11-17T01:50:36.190Z,27.40
2022-11-17T01:53:10.340Z,30.48
2022-11-17T01:55:52.391Z,32.63
2022-11-17T01:58:22.994Z,29.48
2022-11-17T02:00:49.794Z,29.55
2022-11-17T02:03:19.111Z,26.02
2022-11-17T02:06:09.879Z,28.80
2022-11-17T02:08:39.049Z,29.08
2022-11-17T02:11:14.177Z,28.27
2022-11-17T02:13:41.371Z,28.77
2022-11-17T02:16:15.894Z,28.95
2022-11-17T02:18:43.768Z,24.95
2022-11-17T02:21:38.031Z,29.17
2022-11-17T02:24:07.589Z,27.15
2022-11-17T02:27:05.138Z,29.30
2022-11-17T02:29:37.489Z,28.38
2022-11-17T02:32:13.232Z,32.88
2022-11-17T02:35:11.725Z,30.63
2022-11-17T02:37:44.171Z,28.63
2022-11-17T02:40:20.880Z,26.90
2022-11-17T02:43:12.887Z,27.60
2022-11-17T02:45:58.541Z,30.92
2022-11-17T02:48:32.770Z,28.13
2022-11-17T02:51:02.527Z,27.83
2022-11-17T02:53:30.679Z,32.45
2022-11-17T02:56:01.207Z,25.00
2022-11-17T02:58:30.783Z,31.42
2022-11-17T03:01:23.291Z,27.85
2022-11-17T03:04:07.125Z,26.48
2022-11-17T03:06:53.711Z,27.23
2022-11-17T03:09:49.297Z,28.70
2022-11-17T03:12:38.268Z,27.63
2022-11-17T03:15:34.945Z,25.02
2022-11-17T03:18:18.261Z,25.48
2022-11-17T03:21:13.367Z,27.27
2022-11-17T03:23:51.179Z,29.27
2022-11-17T03:26:32.470Z,28.48
2022-11-17T03:29:08.310Z,26.87
2022-11-17T03:31:36.476Z,29.45
2022-11-17T03:34:06.948Z,28.55
2022-11-17T03:36:43.531Z,29.02
2022-11-17T03:39:23.705Z,24.88
2022-11-17T03:42:00.530Z,25.27
2022-11-17T03:44:33.804Z,25.80
2022-11-17T03:47:12.413Z,23.27
2022-11-17T03:49:53.017Z,26.17
2022-11-17T03:52:27.059Z,28.95
2022-11-17T03:55:00.975Z,26.17
2022-11-17T03:57:46.321Z,26.20
2022-11-17T04:00:15.666Z,25.50
2022-11-17T04:02:48.426Z,25.63
2022-11-17T04:05:23.163Z,26.67
2022-11-17T04:07:57.576Z,27.15
2022-11-17T04:10:26.462Z,27.38
2022-11-17T04:13:21.773Z,28.45
2022-11-17T04:15:56.561Z,27.05
2022-11-17T04:18:23.942Z,30.75
2022-11-17T04:20:58.245Z,30.65
2022-11-17T04:23:43.419Z,27.42
2022-11-17T04:26:43.902Z,29.85
2022-11-17T04:29:10.488Z,32.15
2022-11-17T04:31:45.680Z,30.30
2022-11-17T04:34:12.188Z,20.90
2022-11-17T04:36:47.921Z,26.05
2022-11-17T04:39:15.965Z,25.13
2022-11-17T04:42:11.600Z,31.85
2022-11-17T04:44:38.218Z,30.25
2022-11-17T04:47:12.750Z,29.65
2022-11-17T04:49:39.361Z,29.85
2022-11-17T04:52:06.135Z,33.17
2022-11-17T04:54:41.237Z,31.05
2022-11-17T04:57:15.786Z,29.98
2022-11-17T04:59:50.116Z,30.50
2022-11-17T05:02:24.815Z,32.72
2022-11-17T05:05:00.532Z,30.05
2022-11-17T05:07:36.109Z,31.17
2022-11-17T05:10:02.806Z,31.67
2022-11-17T05:12:47.763Z,32.97
2022-11-17T05:15:38.819Z,30.05
2022-11-17T05:18:13.601Z,32.92
2022-11-17T05:20:43.116Z,29.48
2022-11-17T05:23:28.205Z,32.97
2022-11-17T05:25:54.792Z,32.80
2022-11-17T05:28:21.267Z,34.30
2022-11-17T05:30:47.854Z,29.73
2022-11-17T05:33:36.427Z,30.90
2022-11-17T05:36:06.078Z,34.03
2022-11-17T05:38:32.640Z,27.30
2022-11-17T05:41:00.159Z,33.92
2022-11-17T05:43:27.110Z,32.30
2022-11-17T05:45:53.675Z,38.00
2022-11-17T05:48:20.541Z,34.50
2022-11-17T05:50:47.367Z,35.83
2022-11-17T05:53:13.989Z,39.97
2022-11-17T05:55:43.123Z,42.92
2022-11-17T05:58:28.388Z,36.58
2022-11-17T06:00:57.060Z,33.25
2022-11-17T06:03:47.451Z,32.75
2022-11-17T06:06:16.029Z,34.00
2022-11-17T06:08:42.935Z,34.13
2022-11-17T06:11:14.711Z,35.40
2022-11-17T06:13:41.320Z,35.88
2022-11-17T06:16:15.757Z,39.55
2022-11-17T06:19:00.472Z,40.38
2022-11-17T06:22:04.467Z,45.13
2022-11-17T06:24:31.550Z,35.40
2022-11-17T06:27:06.599Z,31.80
2022-11-17T06:29:44.720Z,31.15
2022-11-17T06:32:14.279Z,36.42
2022-11-17T06:34:42.149Z,39.97
2022-11-17T06:37:12.342Z,35.55
2022-11-17T06:39:38.998Z,34.13
2022-11-17T06:42:08.506Z,41.10
2022-11-17T06:44:38.540Z,42.63
2022-11-17T06:47:05.157Z,38.67
2022-11-17T06:49:31.733Z,43.17
2022-11-17T06:51:58.207Z,39.58
2022-11-17T06:54:24.728Z,39.80
2022-11-17T06:56:52.802Z,44.95
2022-11-17T06:59:19.454Z,42.95
2022-11-17T07:01:53.054Z,36.08
2022-11-17T07:04:19.830Z,42.28
2022-11-17T07:06:46.304Z,43.35
2022-11-17T07:09:21.328Z,47.53
2022-11-17T07:11:54.521Z,45.30
2022-11-17T07:14:31.251Z,46.15
2022-11-17T07:17:06.110Z,52.97
2022-11-17T07:19:36.218Z,46.05
2022-11-17T07:22:04.093Z,50.03
2022-11-17T07:24:37.743Z,42.20
2022-11-17T07:27:12.660Z,25.88
2022-11-17T07:29:39.575Z,40.53
2022-11-17T07:32:06.174Z,41.85
2022-11-17T07:34:40.635Z,23.13
2022-11-17T07:37:15.144Z,42.92
2022-11-17T07:39:42.419Z,35.50
2022-11-17T07:42:11.709Z,40.92
2022-11-17T07:44:40.703Z,45.97
2022-11-17T07:47:15.066Z,48.22
2022-11-17T07:49:50.429Z,24.58
2022-11-17T07:52:26.233Z,41.03
2022-11-17T07:54:53.617Z,44.38
2022-11-17T07:57:21.485Z,51.70
2022-11-17T07:59:56.246Z,42.03
2022-11-17T08:02:31.605Z,35.78
2022-11-17T08:05:06.267Z,25.45
2022-11-17T08:07:41.540Z,36.72
2022-11-17T08:10:25.947Z,38.72
2022-11-17T08:13:03.963Z,38.38
2022-11-17T08:15:39.068Z,60.50
2022-11-17T08:18:13.676Z,22.45
2022-11-17T08:20:43.732Z,35.20
2022-11-17T08:23:11.694Z,25.25
2022-11-17T08:25:44.761Z,39.25
2022-11-17T08:28:11.398Z,32.75
2022-11-17T08:30:46.369Z,33.97
2022-11-17T08:33:22.918Z,23.13
2022-11-17T08:35:58.820Z,22.00
2022-11-17T08:38:33.475Z,37.05
2022-11-17T08:41:12.076Z,42.35
2022-11-17T08:43:46.699Z,36.40
2022-11-17T08:46:21.578Z,38.92
2022-11-17T08:48:56.819Z,41.72
2022-11-17T08:51:34.752Z,47.42
2022-11-17T08:54:02.217Z,41.58
2022-11-17T08:56:28.925Z,39.55
2022-11-17T08:59:00.231Z,27.67
2022-11-17T09:01:27.372Z,25.90
2022-11-17T09:03:54.186Z,31.25
2022-11-17T09:06:20.808Z,38.47
2022-11-17T09:08:55.710Z,18.55
2022-11-17T09:11:30.557Z,34.28
2022-11-17T09:14:05.971Z,32.10
2022-11-17T09:16:40.695Z,37.58
2022-11-17T09:19:09.741Z,36.58
2022-11-17T09:21:39.442Z,40.15
2022-11-17T09:24:14.702Z,29.13
2022-11-17T09:26:51.713Z,37.92
2022-11-17T09:29:28.436Z,35.97
2022-11-17T09:32:02.911Z,39.22
2022-11-17T09:34:37.679Z,41.72
2022-11-17T09:37:14.588Z,44.85
2022-11-17T09:39:49.121Z,45.00
2022-11-17T09:42:24.783Z,40.17
2022-11-17T09:45:09.406Z,40.95
2022-11-17T09:48:34.047Z,43.28
2022-11-17T09:50:57.959Z,35.40
2022-11-17T09:53:48.179Z,44.05
2022-11-17T09:56:15.204Z,43.10
2022-11-17T09:58:50.903Z,27.80
2022-11-17T10:01:28.305Z,34.15
2022-11-17T10:03:56.998Z,29.52
2022-11-17T10:06:27.913Z,30.65
2022-11-17T10:09:02.814Z,27.58
2022-11-17T10:11:40.177Z,39.38
2022-11-17T10:14:15.150Z,31.20
2022-11-17T10:16:50.881Z,45.30
2022-11-17T10:19:26.278Z,43.00
2022-11-17T10:22:33.788Z,43.45
2022-11-17T10:25:22.715Z,44.70
2022-11-17T10:27:57.626Z,43.22
2022-11-17T10:30:24.830Z,41.15
2022-11-17T10:33:04.105Z,48.03
2022-11-17T10:35:39.033Z,44.50
2022-11-17T10:38:23.818Z,30.08
2022-11-17T10:40:59.171Z,47.75
2022-11-17T10:43:43.257Z,44.53
2022-11-17T10:46:22.381Z,43.00
2022-11-17T10:49:24.494Z,31.67
2022-11-17T10:52:12.546Z,40.67
2022-11-17T10:54:46.445Z,42.22
2022-11-17T10:57:26.590Z,43.58
2022-11-17T11:00:07.561Z,43.25
2022-11-17T11:02:43.732Z,43.00
2022-11-17T11:05:18.506Z,43.97
2022-11-17T11:07:52.371Z,44.25
2022-11-17T11:10:36.597Z,41.80
2022-11-17T11:13:33.477Z,45.10
2022-11-17T11:16:00.020Z,46.63
2022-11-17T11:18:30.180Z,44.13
2022-11-17T11:21:18.155Z,43.97
2022-11-17T11:23:55.451Z,40.80
2022-11-17T11:26:39.977Z,43.13
2022-11-17T11:29:23.098Z,46.70
2022-11-17T11:32:08.271Z,49.17
2022-11-17T11:35:00.156Z,42.67
2022-11-17T11:37:57.978Z,38.90
2022-11-17T11:40:26.749Z,45.08
2022-11-17T11:42:58.882Z,44.05
2022-11-17T11:45:47.129Z,40.53
2022-11-17T11:48:27.179Z,43.80
2022-11-17T11:50:57.926Z,42.22
2022-11-17T11:53:36.487Z,39.03
2022-11-17T11:56:36.266Z,38.10
2022-11-17T11:59:48.253Z,42.33
2022-11-17T12:02:35.080Z,43.83
2022-11-17T12:05:28.061Z,42.92
2022-11-17T12:08:09.061Z,45.38
2022-11-17T12:10:39.934Z,42.33
2022-11-17T12:13:14.305Z,34.10
2022-11-17T12:15:40.971Z,41.78
2022-11-17T12:18:16.619Z,41.67
2022-11-17T12:20:51.960Z,39.63
2022-11-17T12:23:34.651Z,44.40
2022-11-17T12:26:02.802Z,40.75
2022-11-17T12:28:41.661Z,30.83
2022-11-17T12:31:42.874Z,37.53
2022-11-17T12:34:33.706Z,38.22
2022-11-17T12:37:13.201Z,40.17
2022-11-17T12:40:01.590Z,39.22
2022-11-17T12:42:30.711Z,38.17
2022-11-17T12:45:00.295Z,43.08
2022-11-17T12:47:29.677Z,45.25
2022-11-17T12:50:17.404Z,44.58
2022-11-17T12:53:08.828Z,46.72
2022-11-17T12:55:35.365Z,42.10
2022-11-17T12:58:28.603Z,30.25
2022-11-17T13:01:15.082Z,38.50
2022-11-17T13:04:12.331Z,42.08
2022-11-17T13:06:39.223Z,39.42
2022-11-17T13:09:11.466Z,40.78
2022-11-17T13:11:38.090Z,42.70
2022-11-17T13:14:14.950Z,40.42
2022-11-17T13:16:50.797Z,38.75
2022-11-17T13:19:38.026Z,38.80
2022-11-17T13:22:12.194Z,40.38
2022-11-17T13:24:40.508Z,38.78
2022-11-17T13:27:23.243Z,44.05
2022-11-17T13:29:52.374Z,44.13
2022-11-17T13:32:26.569Z,36.15
2022-11-17T13:34:59.946Z,39.67
2022-11-17T13:37:31.041Z,40.40
2022-11-17T13:40:15.344Z,45.67
2022-11-17T13:42:42.561Z,39.10
2022-11-17T13:45:14.913Z,45.90
2022-11-17T13:47:49.937Z,43.72
2022-11-17T13:50:26.038Z,42.42
2022-11-17T13:52:54.792Z,49.40
2022-11-17T13:55:22.564Z,49.33
2022-11-17T13:58:31.050Z,58.03
2022-11-17T14:00:58.892Z,63.05
2022-11-17T14:03:37.250Z,66.03
2022-11-17T14:06:07.828Z,67.90
2022-11-17T14:08:35.923Z,64.38
2022-11-17T14:11:11.750Z,68.60
2022-11-17T14:13:45.243Z,67.45
2022-11-17T14:16:31.196Z,61.50
2022-11-17T14:19:04.535Z,66.10
2022-11-17T14:21:35.991Z,72.35
2022-11-17T14:24:11.229Z,79.10
2022-11-17T14:26:44.725Z,73.38
2022-11-17T14:29:13.574Z,79.25
2022-11-17T14:31:40.351Z,74.32
2022-11-17T14:34:07.253Z,73.78
2022-11-17T14:36:35.194Z,76.55
2022-11-17T14:39:02.851Z,79.75
2022-11-17T14:41:29.836Z,85.88
2022-11-17T14:43:56.740Z,76.38
2022-11-17T14:46:26.977Z,87.18
2022-11-17T14:48:54.143Z,80.28
2022-11-17T14:51:21.374Z,92.05
2022-11-17T14:53:49.926Z,100.88
2022-11-17T14:56:19.024Z,109.25
2022-11-17T14:58:46.809Z,127.22
2022-11-17T15:01:19.890Z,135.13
2022-11-17T15:03:46.843Z,130.32
2022-11-17T15:06:19.378Z,133.48
2022-11-17T15:08:47.349Z,129.57
2022-11-17T15:11:17.934Z,155.35
2022-11-17T15:13:44.763Z,136.02
2022-11-17T15:16:12.098Z,156.60
2022-11-17T15:18:40.731Z,152.13
2022-11-17T15:21:09.972Z,143.05
2022-11-17T15:23:43.208Z,154.95
2022-11-17T15:26:15.739Z,145.45
2022-11-17T15:28:43.174Z,118.43
2022-11-17T15:31:18.416Z,144.38
2022-11-17T15:33:46.801Z,128.23
2022-11-17T15:36:18.219Z,130.75
2022-11-17T15:38:45.281Z,145.23
2022-11-17T15:41:18.702Z,133.73
2022-11-17T15:43:45.532Z,136.63
2022-11-17T15:46:14.611Z,133.88
2022-11-17T15:48:42.994Z,113.47
2022-11-17T15:51:12.943Z,128.82
2022-11-17T15:53:39.601Z,113.63
2022-11-17T15:56:08.864Z,117.07
2022-11-17T15:58:36.068Z,95.18
2022-11-17T16:01:27.854Z,116.57
2022-11-17T16:04:05.831Z,103.22
2022-11-17T16:06:34.244Z,101.35
2022-11-17T16:09:03.410Z,92.13
2022-11-17T16:11:33.505Z,101.47
2022-11-17T16:14:01.072Z,107.18
2022-11-17T16:16:34.945Z,101.20
2022-11-17T16:19:03.764Z,108.70
2022-11-17T16:21:30.334Z,112.95
2022-11-17T16:23:57.735Z,102.05
2022-11-17T16:26:26.208Z,95.15
2022-11-17T16:29:01.158Z,103.75
2022-11-17T16:31:40.516Z,88.85
2022-11-17T16:34:12.159Z,104.40
2022-11-17T16:36:40.924Z,109.38
2022-11-17T16:39:13.768Z,112.28
2022-11-17T16:41:42.994Z,102.60
2022-11-17T16:44:16.284Z,84.60
2022-11-17T16:46:45.436Z,99.68
2022-11-17T16:49:16.820Z,120.95
2022-11-17T16:51:51.998Z,116.70
2022-11-17T16:54:20.020Z,106.68
2022-11-17T16:56:46.745Z,102.20
2022-11-17T16:59:14.488Z,105.68
2022-11-17T17:01:41.406Z,104.68
2022-11-17T17:04:10.071Z,102.25
2022-11-17T17:06:41.000Z,112.95
2022-11-17T17:09:09.726Z,107.00
2022-11-17T17:11:46.838Z,109.28
2022-11-17T17:14:20.911Z,109.22
2022-11-17T17:16:47.505Z,113.22
2022-11-17T17:19:24.369Z,111.13
2022-11-17T17:21:59.331Z,116.40
2022-11-17T17:24:25.931Z,119.88
2022-11-17T17:26:58.000Z,112.13
2022-11-17T17:31:58.950Z,122.72
2022-11-17T17:34:25.489Z,119.13
2022-11-17T17:36:52.106Z,115.07
2022-11-17T17:39:18.853Z,115.85
2022-11-17T17:41:48.246Z,119.13
2022-11-17T17:44:17.536Z,115.78
2022-11-17T17:46:46.887Z,113.00
2022-11-17T17:49:13.613Z,107.43
2022-11-17T17:51:44.066Z,114.97
2022-11-17T17:54:40.060Z,113.03
2022-11-17T17:57:06.544Z,112.78
2022-11-17T17:59:33.047Z,99.53
2022-11-17T18:02:02.538Z,100.53
2022-11-17T18:04:29.572Z,106.10
2022-11-17T18:06:57.414Z,113.32
2022-11-17T18:09:23.902Z,105.60
2022-11-17T18:11:51.218Z,116.30
2022-11-17T18:14:23.791Z,116.53
2022-11-17T18:16:53.762Z,116.65
2022-11-17T18:19:27.073Z,95.22
2022-11-17T18:22:07.581Z,118.18
2022-11-17T18:24:34.254Z,124.80
2022-11-17T18:27:00.784Z,108.22
2022-11-17T18:29:39.578Z,133.60
2022-11-17T18:32:06.292Z,101.90
2022-11-17T18:34:32.842Z,71.18
2022-11-17T18:36:59.962Z,103.72
2022-11-17T18:39:28.319Z,78.45
2022-11-17T18:41:54.939Z,117.13
2022-11-17T18:44:21.470Z,117.68
2022-11-17T18:46:48.035Z,122.13
2022-11-17T18:49:15.105Z,128.63
2022-11-17T18:51:41.958Z,125.32
2022-11-17T18:54:11.533Z,112.50
2022-11-17T18:56:44.065Z,108.63
2022-11-17T18:59:13.687Z,122.20
2022-11-17T19:01:46.255Z,105.95
2022-11-17T19:04:13.888Z,82.00
2022-11-17T19:06:42.770Z,106.43
2022-11-17T19:09:09.795Z,78.68
2022-11-17T19:11:39.108Z,82.93
2022-11-17T19:14:06.271Z,83.53
2022-11-17T19:16:44.911Z,110.07
2022-11-17T19:19:13.129Z,117.40
2022-11-17T19:21:48.865Z,116.63
2022-11-17T19:24:15.597Z,113.85
2022-11-17T19:26:46.447Z,114.15
2022-11-17T19:29:17.021Z,121.53
2022-11-17T19:31:47.972Z,114.45
2022-11-17T19:34:15.240Z,112.90
2022-11-17T19:36:42.010Z,117.05
2022-11-17T19:39:08.572Z,124.60
2022-11-17T19:41:48.743Z,125.20
2022-11-17T19:44:15.435Z,124.30
2022-11-17T19:46:43.199Z,115.32
2022-11-17T19:49:12.783Z,104.43
2022-11-17T19:51:39.817Z,115.15
2022-11-17T19:54:15.618Z,108.07
2022-11-17T19:56:43.602Z,117.35
2022-11-17T19:59:15.700Z,120.60
2022-11-17T20:01:43.470Z,121.20
2022-11-17T20:04:10.113Z,116.60
2022-11-17T20:06:41.867Z,127.95
2022-11-17T20:09:10.887Z,102.15
2022-11-17T20:11:37.918Z,107.78
2022-11-17T20:14:08.038Z,129.30
2022-11-17T20:16:34.708Z,129.10
2022-11-17T20:19:04.680Z,140.38
2022-11-17T20:21:41.161Z,127.18
2022-11-17T20:24:11.262Z,119.15
2022-11-17T20:26:43.634Z,129.30
2022-11-17T20:29:18.531Z,131.10
2022-11-17T20:31:45.283Z,139.27
2022-11-17T20:34:12.583Z,148.73
2022-11-17T20:36:49.031Z,150.32
2022-11-17T20:39:15.868Z,127.25
2022-11-17T20:41:42.602Z,138.18
2022-11-17T20:44:24.940Z,139.93
2022-11-17T20:46:56.089Z,139.70
2022-11-17T20:49:24.422Z,109.27
2022-11-17T20:51:59.265Z,117.47
2022-11-17T20:54:25.802Z,99.40
2022-11-17T20:56:55.489Z,116.53
2022-11-17T20:59:22.365Z,128.52
2022-11-17T21:01:51.716Z,144.40
2022-11-17T21:04:19.072Z,154.48
2022-11-17T21:06:52.604Z,128.98
2022-11-17T21:09:28.579Z,170.32
2022-11-17T21:11:59.917Z,109.57
2022-11-17T21:14:27.549Z,168.95
2022-11-17T21:17:02.073Z,157.55
2022-11-17T21:19:39.056Z,150.52
2022-11-17T21:22:13.787Z,160.07
2022-11-17T21:24:47.144Z,101.20
2022-11-17T21:27:15.006Z,148.15
2022-11-17T21:29:41.500Z,156.73
2022-11-17T21:32:10.401Z,157.57
2022-11-17T21:34:40.321Z,121.35
2022-11-17T21:37:24.209Z,127.72
2022-11-17T21:39:54.388Z,121.40
2022-11-17T21:42:20.945Z,132.80
2022-11-17T21:44:55.705Z,146.13
2022-11-17T21:47:22.801Z,148.02
2022-11-17T21:49:49.512Z,132.05
2022-11-17T21:52:19.214Z,115.32
2022-11-17T21:54:46.054Z,121.68
2022-11-17T21:57:14.737Z,79.32
2022-11-17T21:59:41.245Z,61.75
2022-11-17T22:02:09.912Z,63.60
2022-11-17T22:04:48.382Z,92.65
2022-11-17T22:07:23.197Z,76.93
2022-11-17T22:09:50.059Z,86.32
2022-11-17T22:12:16.617Z,114.97
2022-11-17T22:14:43.140Z,98.97
2022-11-17T22:17:12.584Z,110.55
2022-11-17T22:19:39.153Z,104.30
2022-11-17T22:22:13.700Z,105.88
2022-11-17T22:24:42.365Z,66.10
2022-11-17T22:27:12.757Z,74.25
2022-11-17T22:29:39.380Z,55.63
2022-11-17T22:32:05.972Z,79.75
2022-11-17T22:34:32.795Z,87.43
2022-11-17T22:36:59.336Z,77.55
2022-11-17T22:39:31.794Z,93.57
2022-11-17T22:41:58.468Z,54.50
2022-11-17T22:44:25.360Z,60.55
2022-11-17T22:46:52.032Z,92.88
2022-11-17T22:49:22.582Z,77.60
2022-11-17T22:52:04.072Z,92.20
2022-11-17T22:54:39.581Z,83.63
2022-11-17T22:57:14.629Z,85.18
2022-11-17T22:59:49.057Z,94.63
2022-11-17T23:02:15.989Z,58.60
2022-11-17T23:04:42.528Z,59.63
2022-11-17T23:07:17.281Z,65.22
2022-11-17T23:09:44.285Z,77.72
2022-11-17T23:12:11.053Z,65.43
2022-11-17T23:14:42.797Z,67.90
2022-11-17T23:17:09.403Z,66.72
2022-11-17T23:19:44.023Z,74.15
2022-11-17T23:22:18.473Z,72.63
2022-11-17T23:24:52.901Z,66.28
2022-11-17T23:27:22.560Z,75.50
2022-11-17T23:29:49.996Z,83.70
2022-11-17T23:32:25.037Z,79.10
2022-11-17T23:34:51.636Z,85.57
2022-11-17T23:37:27.495Z,73.70
2022-11-17T23:39:54.096Z,62.90
2022-11-17T23:42:29.908Z,62.10
2022-11-17T23:44:59.213Z,69.35
2022-11-17T23:47:35.373Z,70.97
2022-11-17T23:50:05.317Z,78.40
2022-11-17T23:52:32.118Z,66.65
2022-11-17T23:55:06.380Z,71.47
2022-11-17T23:57:37.301Z,75.53
